Time;durP1;ratioP1;P1;durP2;ratioP2;P2;SDS_P1;SDS_P2;PMS_P1;PMS_P2;Temp;Humidity;BMP_temperature;BMP_pressure;BME280_temperature;BME280_humidity;BME280_pressure;Samples;Min_cycle;Max_cycle;Signal;HPM_P1;HPM_P2
2023/05/18 00:01:13;;;;;;;1.53;1.43;;;;;;;6.48;100.00;96848.19;5077277;28;20235;-68
2023/05/18 00:03:40;;;;;;;3.03;1.47;;;;;;;6.48;100.00;96842.94;5077550;28;20227;-68
2023/05/18 00:06:06;;;;;;;2.73;1.20;;;;;;;6.46;100.00;96841.44;5077219;28;20265;-65
2023/05/18 00:08:33;;;;;;;1.63;1.53;;;;;;;6.37;100.00;96837.84;5076768;28;20260;-68
2023/05/18 00:11:00;;;;;;;2.60;1.77;;;;;;;6.32;100.00;96837.41;5076772;28;20295;-67
2023/05/18 00:13:26;;;;;;;2.33;1.20;;;;;;;6.35;100.00;96837.16;5077830;28;20204;-70
2023/05/18 00:15:53;;;;;;;1.63;1.47;;;;;;;6.41;100.00;96833.97;5077250;28;20684;-70
2023/05/18 00:18:22;;;;;;;1.43;1.33;;;;;;;6.38;100.00;96830.84;5076315;28;21006;-67
2023/05/18 00:20:49;;;;;;;1.63;1.47;;;;;;;6.42;100.00;96835.63;5077045;28;20207;-69
2023/05/18 00:23:16;;;;;;;1.97;1.47;;;;;;;6.42;100.00;96832.22;5077076;28;20223;-66
2023/05/18 00:25:42;;;;;;;0.70;0.70;;;;;;;6.46;100.00;96826.53;5077298;28;20207;-70
2023/05/18 00:28:10;;;;;;;1.03;0.93;;;;;;;6.43;100.00;96829.44;5076385;28;20228;-69
2023/05/18 00:30:37;;;;;;;1.37;1.20;;;;;;;6.27;100.00;96826.53;5077163;28;20217;-69
2023/05/18 00:33:03;;;;;;;3.53;1.43;;;;;;;6.36;100.00;96828.31;5077269;28;20196;-69
2023/05/18 00:35:31;;;;;;;2.10;1.23;;;;;;;6.57;100.00;96822.94;5076469;28;20200;-70
2023/05/18 00:37:57;;;;;;;1.40;0.93;;;;;;;6.57;100.00;96829.03;5076484;28;20232;-68
2023/05/18 00:40:26;;;;;;;1.27;1.07;;;;;;;6.60;100.00;96831.38;5077028;28;20206;-69
2023/05/18 00:42:52;;;;;;;0.57;0.57;;;;;;;6.50;100.00;96838.38;5076458;28;21320;-69
2023/05/18 00:45:19;;;;;;;1.17;1.07;;;;;;;6.48;100.00;96832.47;5076982;28;20864;-70
2023/05/18 00:47:46;;;;;;;0.97;0.97;;;;;;;6.54;100.00;96831.91;5076213;28;20227;-68
2023/05/18 00:50:12;;;;;;;1.93;1.07;;;;;;;6.49;100.00;96831.53;5075959;28;20204;-68
2023/05/18 00:52:40;;;;;;;2.47;1.23;;;;;;;6.50;100.00;96822.69;5076649;28;20215;-65
2023/05/18 00:55:08;;;;;;;1.10;0.93;;;;;;;6.48;100.00;96824.63;5078056;28;20203;-70
2023/05/18 00:57:35;;;;;;;0.50;0.50;;;;;;;6.44;100.00;96832.88;5075875;28;20219;-68
2023/05/18 01:00:03;;;;;;;0.83;0.83;;;;;;;6.42;100.00;96821.72;5075711;28;20683;-69
2023/05/18 01:02:30;;;;;;;1.30;1.00;;;;;;;6.46;100.00;96820.50;5076612;28;20200;-69
2023/05/18 01:04:56;;;;;;;3.57;1.87;;;;;;;6.47;100.00;96822.97;5076556;28;20257;-67
2023/05/18 01:07:25;;;;;;;1.80;1.10;;;;;;;6.50;100.00;96817.44;5076021;28;20230;-70
2023/05/18 01:09:53;;;;;;;0.60;0.60;;;;;;;6.60;100.00;96815.66;5076197;28;20303;-70
2023/05/18 01:12:25;;;;;;;0.97;0.93;;;;;;;6.58;100.00;96808.91;5076283;28;20211;-67
2023/05/18 01:15:00;;;;;;;11.73;1.00;;;;;;;6.67;100.00;96806.28;5076272;28;20281;-69
2023/05/18 01:17:36;;;;;;;1.80;1.00;;;;;;;6.70;100.00;96808.63;5076031;28;20361;-69
2023/05/18 01:20:27;;;;;;;2.50;1.00;;;;;;;6.65;100.00;96810.84;5076500;28;20580;-70
2023/05/18 01:23:08;;;;;;;1.53;0.80;;;;;;;6.55;100.00;96801.34;5076326;28;20212;-69
2023/05/18 01:25:47;;;;;;;1.23;1.13;;;;;;;6.63;100.00;96804.88;5076374;28;20227;-66
2023/05/18 01:28:18;;;;;;;1.93;1.63;;;;;;;6.43;100.00;96811.13;5075822;28;20231;-70
2023/05/18 01:30:46;;;;;;;1.20;0.80;;;;;;;6.38;100.00;96808.09;5076044;28;20203;-67
2023/05/18 01:33:13;;;;;;;0.87;0.87;;;;;;;6.19;100.00;96813.31;5076709;28;20195;-68
2023/05/18 01:35:46;;;;;;;1.30;1.03;;;;;;;6.10;100.00;96808.91;5076210;28;20211;-67
2023/05/18 01:38:14;;;;;;;0.87;0.73;;;;;;;6.06;100.00;96809.31;5075455;28;20220;-66
2023/05/18 01:40:46;;;;;;;1.53;1.00;;;;;;;6.14;100.00;96805.03;5076354;28;20219;-70
2023/05/18 01:43:18;;;;;;;1.20;0.90;;;;;;;6.18;100.00;96805.59;5076698;28;20227;-69
2023/05/18 01:45:50;;;;;;;0.87;0.80;;;;;;;6.18;100.00;96801.19;5075883;28;20672;-66
2023/05/18 01:48:23;;;;;;;1.03;0.83;;;;;;;6.27;100.00;96799.53;5075538;28;20234;-69
2023/05/18 01:50:55;;;;;;;6.53;2.00;;;;;;;6.24;100.00;96802.44;5076397;28;20208;-70
2023/05/18 01:53:24;;;;;;;3.10;1.33;;;;;;;6.23;100.00;96793.75;5076372;28;20799;-70
2023/05/18 01:55:53;;;;;;;1.23;1.17;;;;;;;6.29;100.00;96785.34;5076264;28;20196;-69
2023/05/18 01:58:22;;;;;;;1.93;1.23;;;;;;;6.27;100.00;96789.88;5075973;28;20212;-70
2023/05/18 02:00:49;;;;;;;4.93;0.90;;;;;;;6.20;100.00;96785.38;5075702;28;20618;-70
2023/05/18 02:03:16;;;;;;;0.97;0.80;;;;;;;6.30;100.00;96779.16;5075655;28;21007;-70
2023/05/18 02:05:43;;;;;;;1.07;0.63;;;;;;;6.25;100.00;96784.00;5077156;28;20211;-69
2023/05/18 02:08:09;;;;;;;4.93;0.87;;;;;;;6.22;100.00;96780.81;5075407;28;20231;-70
2023/05/18 02:10:36;;;;;;;2.77;1.43;;;;;;;6.33;100.00;96780.69;5075080;28;21016;-70
2023/05/18 02:13:02;;;;;;;3.30;1.57;;;;;;;6.38;100.00;96781.91;5073908;28;20559;-67
2023/05/18 02:15:30;;;;;;;0.73;0.73;;;;;;;6.28;100.00;96775.84;5076331;28;20668;-70
2023/05/18 02:17:57;;;;;;;1.77;0.93;;;;;;;6.19;100.00;96775.84;5077015;28;20227;-70
2023/05/18 02:20:23;;;;;;;0.97;0.83;;;;;;;6.24;100.00;96773.66;5079631;28;20214;-67
2023/05/18 02:22:50;;;;;;;1.57;1.17;;;;;;;6.13;100.00;96777.22;5079714;28;20375;-68
2023/05/18 02:25:17;;;;;;;1.30;0.93;;;;;;;6.17;100.00;96778.63;5079026;28;20242;-69
2023/05/18 02:27:44;;;;;;;1.23;0.97;;;;;;;6.16;100.00;96773.50;5078849;28;20561;-68
2023/05/18 02:30:11;;;;;;;1.00;1.00;;;;;;;6.31;100.00;96770.34;5079412;28;20265;-68
2023/05/18 02:32:41;;;;;;;1.03;0.90;;;;;;;6.14;100.00;96771.03;5079417;28;20215;-70
2023/05/18 02:35:09;;;;;;;6.27;2.17;;;;;;;6.04;100.00;96772.81;5078688;28;20207;-69
2023/05/18 02:37:38;;;;;;;0.57;0.53;;;;;;;6.00;100.00;96777.66;5078209;28;21015;-67
2023/05/18 02:40:06;;;;;;;2.33;1.60;;;;;;;6.16;100.00;96776.13;5079398;28;20273;-66
2023/05/18 02:42:33;;;;;;;2.37;1.17;;;;;;;6.12;100.00;96775.59;5079220;28;20227;-67
2023/05/18 02:45:01;;;;;;;0.77;0.77;;;;;;;6.17;100.00;96768.16;5078978;28;20239;-70
2023/05/18 02:47:27;;;;;;;1.30;1.10;;;;;;;6.16;100.00;96766.50;5078385;28;20341;-69
2023/05/18 02:49:55;;;;;;;1.20;1.10;;;;;;;6.11;100.00;96771.31;5079066;28;20203;-70
2023/05/18 02:52:22;;;;;;;1.20;1.03;;;;;;;6.14;100.00;96768.41;5078643;28;20204;-70
2023/05/18 02:54:48;;;;;;;0.40;0.40;;;;;;;6.06;100.00;96776.13;5079188;28;20196;-70
2023/05/18 02:57:15;;;;;;;1.27;1.10;;;;;;;6.06;100.00;96776.13;5078257;28;20247;-69
2023/05/18 02:59:42;;;;;;;4.80;1.03;;;;;;;6.12;100.00;96764.28;5078392;28;20227;-70
2023/05/18 03:02:08;;;;;;;0.73;0.73;;;;;;;6.08;100.00;96768.97;5078323;28;21069;-68
2023/05/18 03:04:36;;;;;;;2.10;1.47;;;;;;;6.12;100.00;96762.50;5079029;28;20223;-67
2023/05/18 03:07:06;;;;;;;1.13;1.03;;;;;;;6.09;100.00;96759.31;5078685;28;20308;-70
2023/05/18 03:09:33;;;;;;;0.77;0.77;;;;;;;6.06;100.00;96763.03;5078050;28;20203;-68
2023/05/18 03:12:00;;;;;;;2.13;1.40;;;;;;;6.05;100.00;96758.75;5078536;28;20211;-69
2023/05/18 03:14:26;;;;;;;1.07;0.73;;;;;;;6.12;100.00;96762.50;5078482;28;20196;-70
2023/05/18 03:16:56;;;;;;;0.60;0.60;;;;;;;6.03;100.00;96759.88;5078485;28;20223;-69
2023/05/18 03:19:23;;;;;;;0.60;0.60;;;;;;;6.02;100.00;96757.38;5078275;28;20921;-70
2023/05/18 03:21:49;;;;;;;0.40;0.40;;;;;;;6.11;100.00;96757.41;5078885;28;20384;-71
2023/05/18 03:24:17;;;;;;;2.67;0.63;;;;;;;6.16;100.00;96753.41;5078280;28;20258;-67
2023/05/18 03:26:44;;;;;;;1.07;0.97;;;;;;;5.89;100.00;96755.03;5078525;28;20219;-67
2023/05/18 03:29:12;;;;;;;1.07;0.80;;;;;;;6.03;100.00;96761.66;5077878;28;20688;-70
2023/05/18 03:31:38;;;;;;;0.97;0.73;;;;;;;5.92;100.00;96757.41;5077679;28;20203;-69
2023/05/18 03:34:05;;;;;;;0.60;0.60;;;;;;;5.91;100.00;96757.53;5078635;28;20203;-70
2023/05/18 03:36:31;;;;;;;2.77;1.40;;;;;;;6.06;100.00;96752.56;5078001;28;20224;-68
2023/05/18 03:38:57;;;;;;;3.20;1.70;;;;;;;6.01;100.00;96755.72;5077429;28;20632;-67
2023/05/18 03:41:25;;;;;;;2.13;0.73;;;;;;;6.02;100.00;96749.53;5078112;28;20207;-69
2023/05/18 03:43:52;;;;;;;3.43;0.93;;;;;;;6.07;100.00;96751.63;5077947;28;20231;-70
2023/05/18 03:46:18;;;;;;;0.70;0.70;;;;;;;6.03;100.00;96756.44;5077599;28;20227;-67
2023/05/18 03:48:45;;;;;;;9.60;1.37;;;;;;;6.00;100.00;96757.53;5077396;28;20200;-69
2023/05/18 03:51:11;;;;;;;1.00;0.73;;;;;;;6.09;100.00;96757.53;5078256;28;20303;-70
2023/05/18 03:53:38;;;;;;;0.80;0.70;;;;;;;5.91;100.00;96752.31;5078251;28;20223;-68
2023/05/18 03:56:05;;;;;;;0.93;0.93;;;;;;;6.08;100.00;96757.66;5077282;28;20214;-69
2023/05/18 03:58:32;;;;;;;1.00;0.70;;;;;;;6.05;100.00;96757.94;5076585;28;20214;-70
2023/05/18 04:01:00;;;;;;;1.13;1.03;;;;;;;6.10;100.00;96755.75;5077203;28;20203;-68
2023/05/18 04:03:26;;;;;;;0.50;0.50;;;;;;;6.19;100.00;96755.75;5077536;28;20212;-71
2023/05/18 04:05:54;;;;;;;0.90;0.87;;;;;;;6.12;100.00;96757.28;5077036;28;20231;-69
2023/05/18 04:08:24;;;;;;;10.63;1.90;;;;;;;6.14;100.00;96757.13;5076929;28;20207;-66
2023/05/18 04:10:51;;;;;;;1.23;1.10;;;;;;;6.05;100.00;96753.53;5077213;28;20207;-69
2023/05/18 04:13:17;;;;;;;2.00;0.80;;;;;;;6.14;100.00;96750.09;5077660;28;20675;-69
2023/05/18 04:15:46;;;;;;;0.97;0.87;;;;;;;6.11;100.00;96753.00;5076780;28;20207;-66
2023/05/18 04:18:13;;;;;;;0.70;0.70;;;;;;;6.11;100.00;96753.00;5076518;28;20224;-70
2023/05/18 04:20:40;;;;;;;1.30;1.20;;;;;;;6.21;100.00;96756.44;5077153;28;20210;-69
2023/05/18 04:23:08;;;;;;;2.40;1.43;;;;;;;6.31;100.00;96754.66;5077469;28;20206;-70
2023/05/18 04:25:34;;;;;;;3.70;2.20;;;;;;;6.47;100.00;96759.31;5076212;28;20220;-67
2023/05/18 04:28:01;;;;;;;0.70;0.70;;;;;;;6.44;100.00;96755.19;5076808;28;21167;-66
2023/05/18 04:30:29;;;;;;;2.87;0.93;;;;;;;6.64;100.00;96758.59;5076879;28;20196;-67
2023/05/18 04:32:58;;;;;;;0.90;0.90;;;;;;;6.59;100.00;96760.81;5076512;28;20200;-70
2023/05/18 04:35:25;;;;;;;1.17;1.10;;;;;;;6.51;100.00;96766.75;5077365;28;20215;-68
2023/05/18 04:37:53;;;;;;;0.67;0.67;;;;;;;6.55;100.00;96762.88;5076044;28;20568;-66
2023/05/18 04:40:19;;;;;;;2.63;0.90;;;;;;;6.59;100.00;96764.25;5076318;28;20211;-67
2023/05/18 04:42:46;;;;;;;1.70;1.43;;;;;;;6.75;100.00;96760.09;5077043;28;20542;-70
2023/05/18 04:45:14;;;;;;;1.20;1.07;;;;;;;6.70;100.00;96762.28;5076855;28;20717;-70
2023/05/18 04:47:41;;;;;;;3.23;1.27;;;;;;;6.78;100.00;96764.22;5076136;28;20224;-66
2023/05/18 04:50:09;;;;;;;1.67;1.40;;;;;;;6.86;100.00;96756.47;5077032;28;20207;-70
2023/05/18 04:52:36;;;;;;;4.83;1.93;;;;;;;6.83;100.00;96764.63;5077028;28;20210;-66
2023/05/18 04:55:02;;;;;;;1.23;1.13;;;;;;;6.95;100.00;96764.31;5076589;28;20196;-69
2023/05/18 04:57:29;;;;;;;2.33;1.13;;;;;;;6.87;100.00;96769.44;5076283;28;20226;-69
2023/05/18 04:59:57;;;;;;;1.80;1.07;;;;;;;6.95;100.00;96760.84;5076642;28;20211;-66
2023/05/18 05:02:23;;;;;;;9.83;1.13;;;;;;;7.01;100.00;96761.09;5076714;28;20215;-67
2023/05/18 05:04:50;;;;;;;0.50;0.50;;;;;;;7.15;100.00;96768.50;5076246;28;20222;-67
2023/05/18 05:07:17;;;;;;;3.10;1.03;;;;;;;7.29;100.00;96760.19;5076206;28;20219;-68
2023/05/18 05:09:44;;;;;;;2.03;1.53;;;;;;;7.30;100.00;96764.47;5076098;28;20218;-69
2023/05/18 05:12:11;;;;;;;2.83;1.43;;;;;;;7.39;100.00;96772.28;5076507;28;20660;-70
2023/05/18 05:14:37;;;;;;;0.93;0.83;;;;;;;7.48;100.00;96775.84;5075849;28;20196;-68
2023/05/18 05:17:04;;;;;;;2.57;1.63;;;;;;;7.58;100.00;96777.44;5077097;28;20224;-71
2023/05/18 05:19:30;;;;;;;0.40;0.40;;;;;;;7.62;100.00;96776.16;5075918;28;20200;-67
2023/05/18 05:21:57;;;;;;;0.67;0.63;;;;;;;7.67;100.00;96781.00;5076122;28;20210;-67
2023/05/18 05:24:24;;;;;;;14.43;0.77;;;;;;;7.74;100.00;96782.03;5076662;28;20227;-66
2023/05/18 05:26:51;;;;;;;2.33;1.23;;;;;;;7.73;100.00;96781.22;5075581;28;20440;-69
2023/05/18 05:29:18;;;;;;;1.93;0.97;;;;;;;7.83;100.00;96782.00;5075221;28;20683;-69
2023/05/18 05:31:45;;;;;;;2.20;1.43;;;;;;;7.81;100.00;96783.94;5076186;28;20206;-66
2023/05/18 05:34:12;;;;;;;3.33;1.67;;;;;;;7.91;100.00;96782.09;5076778;28;20225;-67
2023/05/18 05:36:39;;;;;;;0.83;0.80;;;;;;;7.99;100.00;96782.16;5075083;28;20230;-67
2023/05/18 05:39:05;;;;;;;1.47;0.83;;;;;;;8.00;100.00;96781.19;5076262;28;20257;-66
2023/05/18 05:41:33;;;;;;;1.23;1.13;;;;;;;8.15;100.00;96785.00;5076144;28;20726;-70
2023/05/18 05:44:00;;;;;;;1.07;0.93;;;;;;;8.22;100.00;96784.25;5075567;28;20664;-69
2023/05/18 05:46:26;;;;;;;1.83;1.70;;;;;;;8.31;100.00;96788.63;5076349;28;20231;-70
2023/05/18 05:48:53;;;;;;;3.10;1.17;;;;;;;8.45;100.00;96789.88;5076089;28;21189;-69
2023/05/18 05:51:19;;;;;;;1.10;0.97;;;;;;;8.51;100.00;96787.47;5075565;28;20295;-67
2023/05/18 05:53:46;;;;;;;2.13;1.20;;;;;;;8.60;100.00;96783.94;5079356;28;20395;-67
2023/05/18 05:56:12;;;;;;;1.03;0.97;;;;;;;8.69;100.00;96785.66;5080545;28;20200;-67
2023/05/18 05:58:41;;;;;;;1.27;1.17;;;;;;;8.73;100.00;96789.63;5079034;28;20305;-70
2023/05/18 06:01:08;;;;;;;1.10;1.00;;;;;;;8.75;100.00;96782.41;5079915;28;20297;-69
2023/05/18 06:03:34;;;;;;;1.00;0.90;;;;;;;8.75;100.00;96783.22;5079937;28;20282;-69
2023/05/18 06:06:01;;;;;;;11.90;1.33;;;;;;;8.76;100.00;96784.88;5079637;28;20235;-70
2023/05/18 06:08:27;;;;;;;0.80;0.60;;;;;;;8.87;100.00;96791.69;5079292;28;20204;-69
2023/05/18 06:10:55;;;;;;;1.73;1.33;;;;;;;8.92;100.00;96798.13;5079633;28;20219;-71
2023/05/18 06:13:21;;;;;;;1.00;0.53;;;;;;;9.02;100.00;96793.63;5079922;28;20209;-68
2023/05/18 06:15:49;;;;;;;1.13;0.80;;;;;;;9.22;100.00;96793.25;5079674;28;20198;-68
2023/05/18 06:18:16;;;;;;;1.23;1.13;;;;;;;9.14;100.00;96789.78;5078956;28;20253;-68
2023/05/18 06:20:42;;;;;;;1.03;0.97;;;;;;;9.37;100.00;96789.06;5079987;28;20204;-69
2023/05/18 06:23:09;;;;;;;1.33;1.17;;;;;;;9.60;100.00;96795.44;5079583;28;20214;-69
2023/05/18 06:25:35;;;;;;;1.47;1.33;;;;;;;9.58;99.58;96793.94;5079198;28;20724;-68
2023/05/18 06:28:02;;;;;;;1.13;1.00;;;;;;;9.65;100.00;96793.16;5079103;28;20224;-70
2023/05/18 06:30:28;;;;;;;2.53;1.80;;;;;;;9.92;100.00;96799.03;5078125;28;20735;-74
2023/05/18 06:32:56;;;;;;;0.77;0.77;;;;;;;10.11;100.00;96798.78;5077232;28;20207;-67
2023/05/18 06:35:23;;;;;;;0.97;0.87;;;;;;;10.14;99.80;96795.81;5077675;28;20196;-69
2023/05/18 06:37:50;;;;;;;2.53;1.17;;;;;;;10.33;98.43;96790.28;5078421;28;20220;-71
2023/05/18 06:40:17;;;;;;;1.67;1.27;;;;;;;10.47;99.32;96793.09;5078910;28;20196;-68
2023/05/18 06:42:43;;;;;;;2.23;1.07;;;;;;;10.34;96.21;96790.09;5078524;28;20204;-68
2023/05/18 06:45:10;;;;;;;1.70;1.60;;;;;;;10.54;98.36;96786.19;5078834;28;20234;-66
2023/05/18 06:47:37;;;;;;;1.40;1.03;;;;;;;10.65;96.31;96798.22;5077452;28;20227;-69
2023/05/18 06:50:06;;;;;;;1.33;1.13;;;;;;;10.90;97.74;96789.34;5078318;28;20208;-69
2023/05/18 06:52:33;;;;;;;0.90;0.90;;;;;;;10.95;97.60;96778.13;5079259;28;20203;-67
2023/05/18 06:55:00;;;;;;;2.33;1.43;;;;;;;10.86;96.53;96785.38;5077699;28;20200;-68
2023/05/18 06:57:26;;;;;;;1.20;1.10;;;;;;;11.01;96.16;96788.00;5077876;28;20220;-69
2023/05/18 06:59:53;;;;;;;3.00;1.60;;;;;;;11.14;95.70;96790.94;5077551;28;20408;-70
2023/05/18 07:02:20;;;;;;;7.93;1.83;;;;;;;11.26;95.07;96789.59;5078422;28;20211;-68
2023/05/18 07:04:47;;;;;;;3.77;1.83;;;;;;;11.50;97.39;96789.59;5077896;28;20249;-70
2023/05/18 07:07:15;;;;;;;1.10;0.90;;;;;;;11.51;97.04;96793.88;5077947;28;20303;-69
2023/05/18 07:09:44;;;;;;;1.50;1.00;;;;;;;11.47;95.05;96794.34;5078732;28;20215;-70
2023/05/18 07:12:11;;;;;;;1.73;1.60;;;;;;;11.51;93.57;96799.16;5077441;28;20296;-67
2023/05/18 07:14:37;;;;;;;0.80;0.80;;;;;;;12.22;93.98;96796.22;5078345;28;20590;-69
2023/05/18 07:17:05;;;;;;;0.97;0.97;;;;;;;12.20;91.66;96798.19;5078455;28;20249;-69
2023/05/18 07:19:32;;;;;;;2.63;1.33;;;;;;;12.15;94.02;96796.28;5077992;28;20202;-69
2023/05/18 07:21:58;;;;;;;1.27;1.17;;;;;;;11.86;87.66;96794.28;5077944;28;20207;-66
2023/05/18 07:24:26;;;;;;;2.60;1.37;;;;;;;12.17;92.79;96798.56;5078390;28;20236;-70
2023/05/18 07:26:53;;;;;;;2.37;1.77;;;;;;;12.09;89.31;96792.47;5077594;28;20391;-70
2023/05/18 07:29:19;;;;;;;7.00;0.90;;;;;;;12.16;88.30;96796.09;5075941;28;20215;-69
2023/05/18 07:31:46;;;;;;;0.70;0.70;;;;;;;12.43;91.52;96803.53;5077477;28;21010;-73
2023/05/18 07:34:12;;;;;;;1.17;0.83;;;;;;;12.61;90.97;96796.97;5078508;28;20210;-69
2023/05/18 07:36:39;;;;;;;2.07;0.70;;;;;;;12.59;87.93;96793.69;5077409;28;20216;-70
2023/05/18 07:39:05;;;;;;;9.30;2.20;;;;;;;12.69;87.13;96794.28;5076115;28;20208;-72
2023/05/18 07:41:33;;;;;;;0.82;0.73;;;;;;;12.84;86.34;96790.69;5077549;28;20210;-69
2023/05/18 07:44:00;;;;;;;0.60;0.57;;;;;;;12.66;85.55;96789.31;5077048;28;20311;-73
2023/05/18 07:46:26;;;;;;;3.50;1.00;;;;;;;12.78;86.53;96783.47;5076455;28;20721;-72
2023/05/18 07:48:53;;;;;;;1.23;0.98;;;;;;;12.80;85.62;96781.47;5076286;28;20286;-71
2023/05/18 07:51:19;;;;;;;1.35;1.17;;;;;;;12.99;88.46;96786.28;5077006;28;20200;-69
2023/05/18 07:53:46;;;;;;;2.67;0.93;;;;;;;13.02;86.40;96774.53;5076173;28;20196;-73
2023/05/18 07:56:13;;;;;;;1.45;1.35;;;;;;;13.26;84.37;96784.88;5076420;28;20579;-70
2023/05/18 07:58:40;;;;;;;0.90;0.90;;;;;;;13.29;84.31;96771.28;5075800;28;20290;-69
2023/05/18 08:01:07;;;;;;;11.00;1.37;;;;;;;13.39;83.84;96773.50;5075473;28;20210;-71
2023/05/18 08:03:34;;;;;;;4.17;1.27;;;;;;;13.38;84.03;96774.50;5075773;28;20620;-72
2023/05/18 08:06:00;;;;;;;2.42;0.82;;;;;;;13.62;81.71;96771.59;5076380;28;20235;-71
2023/05/18 08:08:27;;;;;;;4.90;1.17;;;;;;;13.42;81.15;96772.31;5075354;28;20200;-68
2023/05/18 08:10:54;;;;;;;0.95;0.90;;;;;;;13.26;74.79;96785.69;5074576;28;20215;-70
2023/05/18 08:13:20;;;;;;;4.57;0.90;;;;;;;13.44;76.18;96770.28;5077308;28;20200;-68
2023/05/18 08:15:48;;;;;;;4.03;1.63;;;;;;;13.68;75.48;96781.47;5076450;28;20238;-68
2023/05/18 08:18:15;;;;;;;4.83;1.10;;;;;;;13.60;73.80;96781.53;5075598;28;20318;-69
2023/05/18 08:20:42;;;;;;;1.77;1.23;;;;;;;13.85;74.33;96777.63;5076767;28;20203;-68
2023/05/18 08:23:09;;;;;;;0.75;0.75;;;;;;;14.00;72.15;96783.72;5077478;28;20203;-70
2023/05/18 08:25:36;;;;;;;2.20;1.13;;;;;;;13.78;71.12;96783.84;5076267;28;20216;-70
2023/05/18 08:28:02;;;;;;;1.55;1.20;;;;;;;14.02;72.38;96781.72;5076522;28;20220;-66
2023/05/18 08:30:29;;;;;;;0.70;0.70;;;;;;;13.99;72.43;96787.38;5077083;28;20208;-68
2023/05/18 08:32:57;;;;;;;1.13;1.02;;;;;;;14.20;70.59;96792.78;5076808;28;20200;-66
2023/05/18 08:35:24;;;;;;;0.88;0.88;;;;;;;14.20;70.78;96784.81;5076548;28;20211;-69
2023/05/18 08:37:50;;;;;;;1.05;0.90;;;;;;;14.28;69.01;96782.88;5074756;28;20216;-69
2023/05/18 08:40:16;;;;;;;2.80;1.20;;;;;;;14.37;70.47;96784.41;5076420;28;20200;-70
2023/05/18 08:42:47;;;;;;;6.93;1.10;;;;;;;14.57;68.14;96766.88;5075810;28;20207;-67
2023/05/18 08:45:22;;;;;;;0.70;0.68;;;;;;;14.55;67.33;96768.06;5074761;28;20211;-66
2023/05/18 08:47:49;;;;;;;3.35;1.55;;;;;;;14.57;65.01;96761.56;5073134;28;20245;-67
2023/05/18 08:50:20;;;;;;;1.65;0.82;;;;;;;14.55;65.61;96757.47;5073229;28;20602;-67
2023/05/18 08:52:51;;;;;;;1.30;0.88;;;;;;;14.55;65.19;96765.41;5074332;28;20207;-68
2023/05/18 08:55:19;;;;;;;1.33;0.85;;;;;;;14.65;63.03;96759.63;5075327;28;20214;-65
2023/05/18 08:57:53;;;;;;;1.60;0.98;;;;;;;14.64;64.60;96768.59;5073619;28;20223;-67
2023/05/18 09:00:20;;;;;;;1.48;1.08;;;;;;;14.60;65.32;96761.22;5073944;28;20203;-68
2023/05/18 09:02:48;;;;;;;7.38;1.50;;;;;;;15.08;69.55;96760.41;5074443;28;20207;-70
2023/05/18 09:05:16;;;;;;;0.70;0.70;;;;;;;15.23;65.04;96755.88;5074706;28;20199;-68
2023/05/18 09:07:45;;;;;;;0.50;0.50;;;;;;;15.37;67.79;96756.59;5073876;28;20227;-68
2023/05/18 09:10:14;;;;;;;2.72;2.03;;;;;;;15.06;67.15;96752.66;5073636;28;20319;-70
2023/05/18 09:12:43;;;;;;;1.60;1.35;;;;;;;15.08;65.99;96750.59;5074335;28;20202;-69
2023/05/18 09:15:10;;;;;;;1.25;1.00;;;;;;;15.05;68.02;96756.31;5074588;28;20210;-68
2023/05/18 09:17:37;;;;;;;2.33;1.63;;;;;;;14.89;63.75;96755.75;5073186;28;20268;-68
2023/05/18 09:20:05;;;;;;;0.70;0.70;;;;;;;14.97;63.89;96755.63;5074501;28;20207;-68
2023/05/18 09:22:34;;;;;;;3.17;1.23;;;;;;;15.24;61.20;96769.78;5074393;28;20199;-67
2023/05/18 09:25:02;;;;;;;0.98;0.90;;;;;;;15.42;61.61;96764.78;5074431;28;20215;-69
2023/05/18 09:27:29;;;;;;;3.17;1.27;;;;;;;15.17;62.12;96760.06;5076935;28;20310;-67
2023/05/18 09:29:57;;;;;;;1.48;0.85;;;;;;;15.00;60.07;96758.72;5077369;28;20652;-67
2023/05/18 09:32:25;;;;;;;2.05;1.45;;;;;;;15.20;62.73;96766.84;5079195;28;20200;-66
2023/05/18 09:34:52;;;;;;;0.65;0.60;;;;;;;14.97;59.56;96769.72;5079915;28;20565;-69
2023/05/18 09:37:20;;;;;;;0.90;0.90;;;;;;;14.58;61.48;96768.53;5077843;28;21281;-66
2023/05/18 09:39:58;;;;;;;2.03;1.42;;;;;;;14.31;63.95;96771.91;5078514;28;20311;-68
2023/05/18 09:42:35;;;;;;;5.47;0.75;;;;;;;14.57;64.30;96766.88;5079550;28;20207;-66
2023/05/18 09:45:01;;;;;;;0.63;0.63;;;;;;;14.70;63.31;96759.88;5078985;28;20282;-67
2023/05/18 09:47:28;;;;;;;4.00;1.20;;;;;;;15.10;60.84;96763.72;5078395;28;20228;-70
2023/05/18 09:49:56;;;;;;;0.68;0.68;;;;;;;15.22;61.12;96763.00;5078056;28;20228;-67
2023/05/18 09:52:23;;;;;;;1.95;0.93;;;;;;;15.27;61.89;96757.94;5078640;28;20208;-65
2023/05/18 09:54:57;;;;;;;4.47;0.90;;;;;;;15.47;63.66;96759.72;5078517;28;20204;-70
2023/05/18 09:57:24;;;;;;;0.50;0.50;;;;;;;15.63;64.22;96755.94;5078120;28;20215;-66
2023/05/18 09:59:55;;;;;;;0.80;0.80;;;;;;;15.76;61.34;96756.00;5077245;28;20354;-68
2023/05/18 10:02:25;;;;;;;2.42;0.77;;;;;;;15.47;61.79;96756.25;5078075;28;21078;-70
2023/05/18 10:04:51;;;;;;;1.42;1.02;;;;;;;15.51;62.96;96753.00;5075955;28;20203;-70
2023/05/18 10:07:18;;;;;;;1.73;0.95;;;;;;;15.79;65.23;96751.13;5075585;28;20256;-70
2023/05/18 10:09:46;;;;;;;1.65;0.80;;;;;;;16.26;63.13;96744.00;5076765;28;20564;-69
2023/05/18 10:12:14;;;;;;;1.90;0.90;;;;;;;16.30;58.93;96739.13;5072841;28;20563;-69
2023/05/18 10:14:41;;;;;;;0.80;0.80;;;;;;;16.79;60.10;96733.31;5077191;28;20295;-69
2023/05/18 10:17:11;;;;;;;1.52;1.10;;;;;;;16.63;60.18;96733.66;5079520;28;20648;-68
2023/05/18 10:19:40;;;;;;;2.13;1.40;;;;;;;16.76;56.79;96730.22;5077332;28;20686;-69
2023/05/18 10:22:08;;;;;;;3.50;1.65;;;;;;;16.83;60.05;96726.53;5079236;28;20690;-68
2023/05/18 10:24:38;;;;;;;19.33;1.08;;;;;;;16.55;55.60;96744.50;5079120;28;20203;-66
2023/05/18 10:27:07;;;;;;;1.48;1.15;;;;;;;16.66;56.59;96735.94;5079177;28;20228;-66
2023/05/18 10:29:35;;;;;;;9.15;3.25;;;;;;;16.23;59.22;96739.06;5077539;28;20284;-68
2023/05/18 10:32:03;;;;;;;1.70;0.85;;;;;;;16.66;58.52;96740.44;5079526;28;20204;-70
2023/05/18 10:34:32;;;;;;;2.92;1.75;;;;;;;16.79;58.33;96738.63;5077580;28;20868;-69
2023/05/18 10:37:03;;;;;;;2.95;1.00;;;;;;;16.92;60.48;96738.63;5078585;28;20260;-69
2023/05/18 10:39:31;;;;;;;1.27;0.90;;;;;;;16.57;62.60;96739.81;5077789;28;20207;-68
2023/05/18 10:42:00;;;;;;;2.05;1.05;;;;;;;15.89;60.26;96740.97;5078393;28;20761;-69
2023/05/18 10:44:27;;;;;;;4.30;1.55;;;;;;;16.15;59.57;96741.91;5078434;28;20211;-67
2023/05/18 10:46:54;;;;;;;0.90;0.75;;;;;;;16.08;60.17;96749.03;5077835;28;20231;-66
2023/05/18 10:49:24;;;;;;;1.15;0.68;;;;;;;16.10;59.16;96741.69;5078824;28;20208;-68
2023/05/18 10:51:53;;;;;;;1.83;0.93;;;;;;;16.03;60.46;96743.47;5078663;28;20199;-70
2023/05/18 10:54:22;;;;;;;1.02;0.70;;;;;;;15.65;60.34;96744.09;5078163;28;20744;-68
2023/05/18 10:56:52;;;;;;;1.30;0.70;;;;;;;15.71;63.30;96742.53;5078958;28;20216;-69
2023/05/18 10:59:19;;;;;;;0.98;0.80;;;;;;;15.26;61.15;96737.72;5077946;28;20979;-69
2023/05/18 11:01:48;;;;;;;1.60;1.42;;;;;;;15.72;62.87;96739.66;5078196;28;20291;-69
2023/05/18 11:04:15;;;;;;;0.80;0.70;;;;;;;15.67;60.07;96743.91;5078320;28;20660;-69
2023/05/18 11:06:42;;;;;;;0.88;0.63;;;;;;;15.72;67.35;96738.81;5078817;28;20338;-66
2023/05/18 11:09:22;;;;;;;1.20;0.88;;;;;;;15.51;63.52;96738.91;5076232;28;20211;-69
2023/05/18 11:11:54;;;;;;;0.68;0.68;;;;;;;15.44;60.80;96741.53;5077731;28;20215;-70
2023/05/18 11:14:30;;;;;;;0.75;0.65;;;;;;;15.50;60.70;96746.06;5076957;28;20642;-70
2023/05/18 11:17:15;;;;;;;1.80;0.73;;;;;;;15.55;62.01;96737.50;5077639;28;20239;-67
2023/05/18 11:20:12;;;;;;;3.63;1.17;;;;;;;15.84;63.40;96737.28;5077325;28;20219;-68
2023/05/18 11:22:47;;;;;;;1.52;0.80;;;;;;;16.27;61.23;96740.34;5077339;28;20732;-69
2023/05/18 11:25:38;;;;;;;0.90;0.65;;;;;;;16.24;59.56;96740.72;5077409;28;20204;-69
2023/05/18 11:28:06;;;;;;;4.75;0.98;;;;;;;15.98;63.46;96740.59;5077100;28;20703;-66
2023/05/18 11:30:46;;;;;;;1.23;0.85;;;;;;;16.03;61.80;96740.81;5077749;28;20196;-67
2023/05/18 11:33:14;;;;;;;2.35;1.45;;;;;;;16.25;59.80;96737.00;5077897;28;20223;-68
2023/05/18 11:35:58;;;;;;;2.80;0.70;;;;;;;16.29;56.49;96742.78;5076411;28;20204;-69
2023/05/18 11:38:46;;;;;;;2.60;1.38;;;;;;;16.40;62.07;96736.91;5077021;28;20206;-73